Time;durP1;ratioP1;P1;durP2;ratioP2;P2;SDS_P1;SDS_P2;PMS_P1;PMS_P2;Temp;Humidity;BMP_temperature;BMP_pressure;BME280_temperature;BME280_humidity;BME280_pressure;Samples;Min_cycle;Max_cycle;Signal;HPM_P1;HPM_P2
2021/04/08 00:02:23;;;;;;;6.57;5.18;;;1.90;95.80;;;;;;5048894;28;20212;-80
2021/04/08 00:04:50;;;;;;;6.72;5.95;;;2.00;96.30;;;;;;5045553;28;20588;-80
2021/04/08 00:07:16;;;;;;;8.27;5.65;;;1.90;96.80;;;;;;5049581;28;20204;-79
2021/04/08 00:09:43;;;;;;;6.25;5.65;;;1.90;97.60;;;;;;5044227;28;20204;-80
2021/04/08 00:12:10;;;;;;;6.32;5.65;;;1.80;98.40;;;;;;5042450;28;20677;-80
2021/04/08 00:14:36;;;;;;;7.50;5.50;;;1.90;98.90;;;;;;5049821;28;20227;-79
2021/04/08 00:17:03;;;;;;;6.72;5.50;;;1.80;99.00;;;;;;5042829;28;20595;-79
2021/04/08 00:19:29;;;;;;;5.75;5.22;;;1.60;99.80;;;;;;5055468;28;20199;-80
2021/04/08 00:21:57;;;;;;;8.27;5.88;;;1.50;99.90;;;;;;5048125;28;20200;-79
2021/04/08 00:24:23;;;;;;;8.77;5.30;;;1.70;99.90;;;;;;5056177;28;20227;-79
2021/04/08 00:26:49;;;;;;;6.45;5.85;;;1.70;99.90;;;;;;5044220;28;20376;-80
2021/04/08 00:29:16;;;;;;;7.30;5.82;;;1.90;99.90;;;;;;5049796;28;20684;-80
2021/04/08 00:31:42;;;;;;;6.88;6.18;;;2.00;99.90;;;;;;5048154;28;20204;-80
2021/04/08 00:34:09;;;;;;;5.60;5.10;;;2.10;99.90;;;;;;5046036;28;20594;-79
2021/04/08 00:36:35;;;;;;;7.95;5.13;;;2.20;99.90;;;;;;5046808;28;20247;-79
2021/04/08 00:39:03;;;;;;;6.20;5.60;;;2.10;99.10;;;;;;5049184;28;20204;-79
2021/04/08 00:41:30;;;;;;;9.73;5.40;;;2.10;99.20;;;;;;5049896;28;20658;-79
2021/04/08 00:43:58;;;;;;;6.40;5.80;;;2.00;99.20;;;;;;5042421;28;20220;-79
2021/04/08 00:46:25;;;;;;;7.10;6.40;;;2.00;99.60;;;;;;5049391;28;20212;-79
2021/04/08 00:48:51;;;;;;;7.07;5.72;;;2.10;99.30;;;;;;5045129;28;20200;-79
2021/04/08 00:51:17;;;;;;;10.48;5.70;;;1.90;99.20;;;;;;5049263;28;20265;-80
2021/04/08 00:53:46;;;;;;;8.05;5.65;;;1.90;99.40;;;;;;5045258;28;20200;-79
2021/04/08 00:56:14;;;;;;;7.20;5.32;;;1.90;99.50;;;;;;5053662;28;20662;-79
2021/04/08 00:58:42;;;;;;;6.03;5.43;;;2.00;99.10;;;;;;5047732;28;20630;-80
2021/04/08 01:01:09;;;;;;;8.00;5.18;;;1.90;98.80;;;;;;5050977;28;20561;-80
2021/04/08 01:03:37;;;;;;;10.30;5.72;;;2.00;98.70;;;;;;5047362;28;20577;-79
2021/04/08 01:06:06;;;;;;;7.18;6.28;;;1.90;98.10;;;;;;5045031;28;20204;-80
2021/04/08 01:08:33;;;;;;;6.47;5.88;;;2.00;98.50;;;;;;5049371;28;20253;-80
2021/04/08 01:11:01;;;;;;;9.32;6.10;;;2.10;98.40;;;;;;5047345;28;20227;-80
2021/04/08 01:13:31;;;;;;;9.43;5.78;;;2.30;98.20;;;;;;5048589;28;20195;-79
2021/04/08 01:16:08;;;;;;;9.73;7.05;;;2.20;97.70;;;;;;5040384;28;20264;-80
2021/04/08 01:18:46;;;;;;;8.20;6.82;;;2.20;97.80;;;;;;5042330;28;20231;-79
2021/04/08 01:21:21;;;;;;;8.40;6.38;;;2.30;97.70;;;;;;5042912;28;20216;-79
2021/04/08 01:24:29;;;;;;;8.93;6.20;;;2.30;97.50;;;;;;5043476;28;20239;-80
2021/04/08 01:27:27;;;;;;;7.38;5.93;;;2.30;97.10;;;;;;5044264;28;20657;-80
2021/04/08 01:30:17;;;;;;;11.80;6.38;;;2.40;97.10;;;;;;5048709;28;20602;-79
2021/04/08 01:32:50;;;;;;;7.13;5.72;;;2.30;97.10;;;;;;5038485;28;20203;-79
2021/04/08 01:35:24;;;;;;;6.75;6.05;;;2.30;96.90;;;;;;5043319;28;20208;-79
2021/04/08 01:37:57;;;;;;;8.25;6.72;;;2.20;96.70;;;;;;5045122;28;20196;-80
2021/04/08 01:40:25;;;;;;;8.43;6.35;;;2.30;96.90;;;;;;5050101;28;20201;-80
2021/04/08 01:42:55;;;;;;;8.38;6.18;;;2.10;96.20;;;;;;5044266;28;20223;-79
2021/04/08 01:45:23;;;;;;;7.13;5.95;;;2.20;96.80;;;;;;5048311;28;20233;-80
2021/04/08 01:47:53;;;;;;;8.20;6.90;;;2.30;96.70;;;;;;5045629;28;20619;-79
2021/04/08 01:50:22;;;;;;;7.18;6.05;;;2.30;96.40;;;;;;5047618;28;20662;-79
2021/04/08 01:52:53;;;;;;;10.40;5.95;;;2.10;95.50;;;;;;5047330;28;20201;-80
2021/04/08 01:55:21;;;;;;;5.45;4.95;;;2.00;96.10;;;;;;5044662;28;20224;-80
2021/04/08 01:57:49;;;;;;;5.82;5.07;;;1.90;95.20;;;;;;5042648;28;20196;-80
2021/04/08 02:00:20;;;;;;;7.00;6.30;;;2.00;95.40;;;;;;5043180;28;20434;-79
2021/04/08 02:02:51;;;;;;;4.93;4.53;;;2.00;94.70;;;;;;5051223;28;20264;-80
2021/04/08 02:05:23;;;;;;;5.60;5.10;;;2.10;95.20;;;;;;5042648;28;20635;-79
2021/04/08 02:07:53;;;;;;;6.57;4.45;;;2.00;94.80;;;;;;5048087;28;20574;-80
2021/04/08 02:10:21;;;;;;;5.55;5.05;;;1.90;94.30;;;;;;5049185;28;20200;-79
2021/04/08 02:12:49;;;;;;;7.30;4.95;;;1.90;94.80;;;;;;5047876;28;20199;-80
2021/04/08 02:15:18;;;;;;;4.40;4.00;;;1.90;95.10;;;;;;5049795;28;20219;-80
2021/04/08 02:17:47;;;;;;;8.32;4.15;;;2.00;94.60;;;;;;5052304;28;20200;-80
2021/04/08 02:20:15;;;;;;;5.03;4.57;;;2.00;94.80;;;;;;5052433;28;20204;-80
2021/04/08 02:22:44;;;;;;;5.40;4.90;;;2.10;95.10;;;;;;5052395;28;20184;-80
2021/04/08 02:25:13;;;;;;;5.78;5.15;;;2.10;94.90;;;;;;5048767;28;20231;-80
2021/04/08 02:27:41;;;;;;;5.70;5.10;;;2.20;94.90;;;;;;5047365;28;20635;-80
2021/04/08 02:30:09;;;;;;;5.05;4.75;;;2.10;94.60;;;;;;5040646;28;20208;-80
2021/04/08 02:32:38;;;;;;;6.35;4.32;;;2.00;94.70;;;;;;5051128;28;20231;-80
2021/04/08 02:35:07;;;;;;;5.45;4.95;;;2.00;95.00;;;;;;5049775;28;20219;-79
2021/04/08 02:37:33;;;;;;;5.15;4.70;;;2.10;94.80;;;;;;5048061;28;20211;-80
2021/04/08 02:40:01;;;;;;;5.03;4.35;;;2.00;94.40;;;;;;5057527;28;20227;-80
2021/04/08 02:42:27;;;;;;;5.10;3.70;;;2.00;94.20;;;;;;5052626;28;20618;-80
2021/04/08 02:44:54;;;;;;;4.50;4.10;;;2.10;94.00;;;;;;5055331;28;20697;-81
2021/04/08 02:47:21;;;;;;;3.83;3.47;;;2.10;93.60;;;;;;5051661;28;20661;-80
2021/04/08 02:49:47;;;;;;;4.50;4.07;;;2.10;93.60;;;;;;5047822;28;20208;-80
2021/04/08 02:52:19;;;;;;;4.25;3.95;;;2.20;93.70;;;;;;5046648;28;20212;-80
2021/04/08 02:54:48;;;;;;;3.70;3.38;;;2.20;93.30;;;;;;5053877;28;20212;-80
2021/04/08 02:57:28;;;;;;;7.07;4.60;;;2.10;93.40;;;;;;5047253;28;20646;-80
2021/04/08 02:59:57;;;;;;;3.92;3.10;;;2.00;93.20;;;;;;5059885;28;20199;-80
2021/04/08 03:02:28;;;;;;;3.85;2.90;;;1.90;93.20;;;;;;5052659;28;20262;-80
2021/04/08 03:04:57;;;;;;;5.45;4.03;;;1.90;92.80;;;;;;5051646;28;20243;-80
2021/04/08 03:07:28;;;;;;;4.35;3.95;;;1.90;93.10;;;;;;5049178;28;20250;-80
2021/04/08 03:09:55;;;;;;;3.90;3.60;;;1.90;92.90;;;;;;5051791;28;20207;-80
2021/04/08 03:12:25;;;;;;;5.63;3.25;;;1.80;92.90;;;;;;5050840;28;20251;-80
2021/04/08 03:14:56;;;;;;;3.97;3.58;;;1.80;92.90;;;;;;5046621;28;20267;-80
2021/04/08 03:17:25;;;;;;;4.10;3.70;;;1.90;92.90;;;;;;5055107;28;20282;-80
2021/04/08 03:19:53;;;;;;;4.38;3.55;;;1.90;93.10;;;;;;5048086;28;20300;-80
2021/04/08 03:22:22;;;;;;;4.57;3.75;;;2.00;93.10;;;;;;5051615;28;20199;-80
2021/04/08 03:24:50;;;;;;;4.63;3.25;;;2.00;93.00;;;;;;5046905;28;20236;-80
2021/04/08 03:27:18;;;;;;;4.72;4.15;;;2.10;92.80;;;;;;5042947;28;20211;-80
2021/04/08 03:29:47;;;;;;;5.28;3.30;;;2.10;92.50;;;;;;5046785;28;20254;-79
2021/04/08 03:32:16;;;;;;;4.40;4.00;;;2.10;92.70;;;;;;5052029;28;20250;-80
2021/04/08 03:34:43;;;;;;;3.88;3.45;;;2.10;92.60;;;;;;5048293;28;20662;-80
2021/04/08 03:37:12;;;;;;;6.50;3.30;;;2.00;92.80;;;;;;5057786;28;20207;-82
2021/04/08 03:39:43;;;;;;;4.32;3.92;;;2.00;93.50;;;;;;5063247;28;20283;-82
2021/04/08 03:42:15;;;;;;;4.35;3.58;;;1.90;93.80;;;;;;5058747;28;20203;-83
2021/04/08 03:44:42;;;;;;;7.35;4.10;;;1.90;93.60;;;;;;5068324;28;20226;-82
2021/04/08 03:47:11;;;;;;;5.45;3.42;;;2.10;93.90;;;;;;5059419;28;20647;-80
2021/04/08 03:49:38;;;;;;;4.70;4.13;;;2.10;93.70;;;;;;5064280;28;20210;-80
2021/04/08 03:52:07;;;;;;;7.80;3.88;;;2.30;93.70;;;;;;5059645;28;20737;-80
2021/04/08 03:54:35;;;;;;;4.03;3.72;;;2.30;93.50;;;;;;5049439;28;20207;-81
2021/04/08 03:57:02;;;;;;;7.03;5.20;;;2.40;93.50;;;;;;5046741;28;20250;-81
2021/04/08 03:59:31;;;;;;;8.98;6.55;;;2.40;93.10;;;;;;5049653;28;20204;-81
2021/04/08 04:01:58;;;;;;;8.43;5.75;;;2.40;93.30;;;;;;5049025;28;20204;-80
2021/04/08 04:04:26;;;;;;;5.65;4.95;;;2.40;92.90;;;;;;5046701;28;20323;-80
2021/04/08 04:06:55;;;;;;;4.88;4.28;;;2.40;93.20;;;;;;5051247;28;20266;-81
2021/04/08 04:09:22;;;;;;;3.63;3.17;;;2.40;92.90;;;;;;5043559;28;20205;-81
2021/04/08 04:11:50;;;;;;;4.18;3.78;;;2.50;92.70;;;;;;5054616;28;20200;-81
2021/04/08 04:14:20;;;;;;;3.90;3.60;;;2.20;92.00;;;;;;5046099;28;20208;-81
2021/04/08 04:16:49;;;;;;;3.45;3.00;;;2.10;93.00;;;;;;5054266;28;20207;-81
2021/04/08 04:19:15;;;;;;;5.13;4.28;;;2.10;93.40;;;;;;5048440;28;20208;-80
2021/04/08 04:21:43;;;;;;;5.15;4.65;;;2.20;93.50;;;;;;5048070;28;20204;-81
2021/04/08 04:24:09;;;;;;;5.35;3.67;;;2.20;93.40;;;;;;5050502;28;20204;-81
2021/04/08 04:26:36;;;;;;;5.72;4.10;;;2.30;93.40;;;;;;5044392;28;20203;-81
2021/04/08 04:29:03;;;;;;;4.85;3.78;;;2.30;93.30;;;;;;5049175;28;20222;-80
2021/04/08 04:31:32;;;;;;;5.10;3.33;;;2.30;93.70;;;;;;5044478;28;20200;-81
2021/04/08 04:33:59;;;;;;;7.57;3.85;;;2.40;93.40;;;;;;5049770;28;20228;-80
2021/04/08 04:36:25;;;;;;;17.63;4.38;;;2.30;92.80;;;;;;5044351;28;20249;-81
2021/04/08 04:38:53;;;;;;;3.92;2.70;;;2.30;92.50;;;;;;5052201;28;20203;-80
2021/04/08 04:41:19;;;;;;;3.30;2.83;;;2.10;91.90;;;;;;5045754;28;20200;-80
2021/04/08 04:43:45;;;;;;;3.55;3.25;;;2.10;92.20;;;;;;5048354;28;20228;-80
2021/04/08 04:46:12;;;;;;;3.97;3.40;;;2.10;92.20;;;;;;5049733;28;20215;-80
2021/04/08 04:48:38;;;;;;;2.80;2.50;;;2.10;92.50;;;;;;5047416;28;20204;-81
2021/04/08 04:51:05;;;;;;;3.50;3.10;;;2.10;92.50;;;;;;5055069;28;20200;-80
2021/04/08 04:53:32;;;;;;;4.20;3.88;;;2.10;92.60;;;;;;5042301;28;20342;-81
2021/04/08 04:56:01;;;;;;;5.25;4.00;;;2.20;92.30;;;;;;5050968;28;20215;-80
2021/04/08 04:58:27;;;;;;;4.72;3.80;;;2.20;91.70;;;;;;5042407;28;20195;-80
2021/04/08 05:00:54;;;;;;;3.75;3.45;;;2.00;91.30;;;;;;5047791;28;20216;-82
2021/04/08 05:03:20;;;;;;;4.93;3.75;;;2.00;91.50;;;;;;5045077;28;20197;-82
2021/04/08 05:05:47;;;;;;;5.72;4.30;;;2.10;91.70;;;;;;5051330;28;20200;-82
2021/04/08 05:08:13;;;;;;;3.65;3.25;;;2.20;91.60;;;;;;5048527;28;20204;-82
2021/04/08 05:10:40;;;;;;;5.00;3.85;;;2.10;91.20;;;;;;5048252;28;20759;-82
2021/04/08 05:13:07;;;;;;;5.47;3.63;;;2.20;91.10;;;;;;5049542;28;20203;-82
2021/04/08 05:15:34;;;;;;;5.72;4.13;;;2.20;90.70;;;;;;5043792;28;20241;-81
2021/04/08 05:18:00;;;;;;;7.68;4.28;;;2.10;90.30;;;;;;5049623;28;20576;-81
2021/04/08 05:20:27;;;;;;;5.53;4.05;;;2.10;89.70;;;;;;5045860;28;20227;-82
2021/04/08 05:22:54;;;;;;;4.25;3.85;;;2.20;89.80;;;;;;5049697;28;20204;-81
2021/04/08 05:25:21;;;;;;;4.25;3.85;;;2.30;89.60;;;;;;5047400;28;20331;-81
2021/04/08 05:27:57;;;;;;;4.85;4.22;;;2.20;89.40;;;;;;5048452;28;20203;-82
2021/04/08 05:30:42;;;;;;;4.22;3.83;;;2.10;89.70;;;;;;5047510;28;20341;-82
2021/04/08 05:33:09;;;;;;;7.90;4.28;;;2.30;89.70;;;;;;5050904;28;20192;-81
2021/04/08 05:35:35;;;;;;;4.40;3.95;;;2.10;89.00;;;;;;5045990;28;20192;-80
2021/04/08 05:38:01;;;;;;;4.10;3.70;;;2.10;89.60;;;;;;5047469;28;20238;-81
2021/04/08 05:40:28;;;;;;;4.85;3.00;;;2.10;88.70;;;;;;5053491;28;20231;-81
2021/04/08 05:42:59;;;;;;;8.88;3.63;;;2.20;89.00;;;;;;5051166;28;20565;-80
2021/04/08 05:45:27;;;;;;;3.63;3.17;;;2.20;88.80;;;;;;5046053;28;20735;-81
2021/04/08 05:47:55;;;;;;;3.38;3.03;;;2.30;89.50;;;;;;5052786;28;20212;-82
2021/04/08 05:50:21;;;;;;;20.58;3.30;;;2.40;88.50;;;;;;5050887;28;20226;-82
2021/04/08 05:52:48;;;;;;;4.05;3.28;;;2.40;88.30;;;;;;5052476;28;20200;-82
2021/04/08 05:55:17;;;;;;;4.60;3.20;;;2.40;88.40;;;;;;5051682;28;20723;-81
2021/04/08 05:57:43;;;;;;;5.50;3.33;;;2.40;88.30;;;;;;5051379;28;20208;-80
2021/04/08 06:00:17;;;;;;;10.63;3.85;;;2.50;87.40;;;;;;5054279;28;20199;-82
2021/04/08 06:02:44;;;;;;;5.55;3.58;;;2.40;88.80;;;;;;5043640;28;20208;-81
2021/04/08 06:05:12;;;;;;;4.75;4.05;;;2.60;88.20;;;;;;5053690;28;20235;-81
2021/04/08 06:07:39;;;;;;;7.75;4.20;;;2.60;87.60;;;;;;5050037;28;20216;-81
2021/04/08 06:10:07;;;;;;;5.05;4.00;;;2.40;87.30;;;;;;5050597;28;20204;-82
2021/04/08 06:12:33;;;;;;;4.78;3.67;;;2.40;87.10;;;;;;5049881;28;20216;-80
2021/04/08 06:15:00;;;;;;;4.13;2.97;;;2.50;87.50;;;;;;5054116;28;20210;-82
2021/04/08 06:17:27;;;;;;;4.95;3.67;;;2.40;86.50;;;;;;5052023;28;20573;-83
2021/04/08 06:19:55;;;;;;;4.57;4.00;;;2.50;85.90;;;;;;5057961;28;20212;-81
2021/04/08 06:22:22;;;;;;;10.30;4.60;;;2.60;86.60;;;;;;5054361;28;20235;-82
2021/04/08 06:24:49;;;;;;;4.50;3.58;;;2.70;86.20;;;;;;5048276;28;20266;-83
2021/04/08 06:27:15;;;;;;;4.10;3.70;;;2.50;84.80;;;;;;5050030;28;20200;-83
2021/04/08 06:29:42;;;;;;;6.70;4.10;;;2.60;86.20;;;;;;5049294;28;20281;-83
2021/04/08 06:32:08;;;;;;;4.78;4.30;;;2.90;86.70;;;;;;5049933;28;20203;-80
2021/04/08 06:34:35;;;;;;;5.47;4.70;;;2.90;84.00;;;;;;5045249;28;20211;-81
2021/04/08 06:37:01;;;;;;;5.63;5.13;;;2.80;83.60;;;;;;5053214;28;20598;-80
2021/04/08 06:39:33;;;;;;;6.53;5.55;;;2.80;83.30;;;;;;5049070;28;20204;-80
2021/04/08 06:42:00;;;;;;;5.57;4.90;;;2.90;82.20;;;;;;5049716;28;20194;-80
2021/04/08 06:44:29;;;;;;;8.63;4.80;;;2.80;82.90;;;;;;5045661;28;20216;-80
2021/04/08 06:46:59;;;;;;;5.30;4.80;;;2.80;83.40;;;;;;5048049;28;20200;-80
2021/04/08 06:49:32;;;;;;;5.07;4.55;;;2.80;81.60;;;;;;5047424;28;20672;-81
2021/04/08 06:51:59;;;;;;;4.78;4.30;;;2.70;80.90;;;;;;5048609;28;20221;-80
2021/04/08 06:54:30;;;;;;;5.70;5.20;;;2.90;82.90;;;;;;5049119;28;20211;-80
2021/04/08 06:56:57;;;;;;;10.18;5.70;;;3.10;82.80;;;;;;5046143;28;20192;-81
2021/04/08 06:59:24;;;;;;;6.05;5.38;;;3.20;81.00;;;;;;5049871;28;20241;-78
2021/04/08 07:01:50;;;;;;;5.30;4.75;;;3.30;79.50;;;;;;5046126;28;20258;-78
2021/04/08 07:04:17;;;;;;;6.97;5.35;;;3.20;79.10;;;;;;5053439;28;20215;-78
2021/04/08 07:06:44;;;;;;;5.72;5.07;;;3.20;78.90;;;;;;5050361;28;20222;-78
2021/04/08 07:09:11;;;;;;;7.40;6.20;;;3.50;79.40;;;;;;5048530;28;20794;-79
2021/04/08 07:11:41;;;;;;;8.68;7.15;;;3.70;79.60;;;;;;5049960;28;20745;-81
2021/04/08 07:14:09;;;;;;;7.53;6.75;;;3.60;80.00;;;;;;5045708;28;20618;-80
2021/04/08 07:16:37;;;;;;;6.72;6.05;;;3.80;78.60;;;;;;5051492;28;20196;-80
2021/04/08 07:19:05;;;;;;;7.68;5.85;;;3.60;76.80;;;;;;5048221;28;20206;-81
2021/04/08 07:21:34;;;;;;;7.18;5.53;;;3.60;76.10;;;;;;5049533;28;20941;-81
2021/04/08 07:24:11;;;;;;;7.57;6.05;;;3.60;76.10;;;;;;5049699;28;20855;-81
2021/04/08 07:26:53;;;;;;;6.28;5.70;;;3.70;77.30;;;;;;5047034;28;20278;-81
2021/04/08 07:29:20;;;;;;;8.27;6.35;;;3.90;77.40;;;;;;5050924;28;20204;-81
2021/04/08 07:31:46;;;;;;;7.50;5.93;;;3.80;76.60;;;;;;5050382;28;20215;-82
2021/04/08 07:34:14;;;;;;;5.45;4.95;;;4.00;76.20;;;;;;5050558;28;20272;-81
2021/04/08 07:36:42;;;;;;;5.28;3.70;;;4.10;75.40;;;;;;5049795;28;20208;-82
2021/04/08 07:39:17;;;;;;;5.35;4.32;;;3.90;72.50;;;;;;5048534;28;20207;-81
2021/04/08 07:41:44;;;;;;;5.05;4.55;;;3.80;72.30;;;;;;5043843;28;20188;-82
2021/04/08 07:44:13;;;;;;;5.13;4.57;;;4.10;74.70;;;;;;5047570;28;20715;-82
2021/04/08 07:46:41;;;;;;;6.07;4.60;;;4.30;72.80;;;;;;5046426;28;20561;-81
2021/04/08 07:49:26;;;;;;;4.75;4.28;;;4.40;72.30;;;;;;5046397;28;20595;-80
2021/04/08 07:51:53;;;;;;;5.10;4.30;;;4.30;69.00;;;;;;5048809;28;20592;-81
2021/04/08 07:54:20;;;;;;;7.75;4.97;;;4.30;71.70;;;;;;5047576;28;20192;-81
2021/04/08 07:56:47;;;;;;;7.63;4.78;;;4.30;72.10;;;;;;5049327;28;20661;-81
2021/04/08 07:59:34;;;;;;;4.80;4.22;;;4.40;70.40;;;;;;5050117;28;20264;-81
2021/04/08 08:02:51;;;;;;;4.50;3.35;;;4.50;70.10;;;;;;5048298;28;20204;-81
2021/04/08 08:05:24;;;;;;;5.82;4.75;;;4.50;71.40;;;;;;5045138;28;20212;-80
2021/04/08 08:07:54;;;;;;;5.93;4.55;;;4.70;70.30;;;;;;5049109;28;20202;-81
2021/04/08 08:10:26;;;;;;;6.15;5.07;;;4.70;71.00;;;;;;5047503;28;20723;-81
2021/04/08 08:12:53;;;;;;;6.65;5.28;;;4.40;68.70;;;;;;5050101;28;20560;-80
2021/04/08 08:15:26;;;;;;;6.50;4.72;;;4.60;69.80;;;;;;5049472;28;20196;-80
2021/04/08 08:17:56;;;;;;;4.95;4.43;;;4.60;68.00;;;;;;5058041;28;20290;-82
2021/04/08 08:20:24;;;;;;;6.25;5.00;;;4.60;67.70;;;;;;5051014;28;21413;-81
2021/04/08 08:22:51;;;;;;;5.68;5.05;;;4.80;68.00;;;;;;5051149;28;20203;-81
2021/04/08 08:25:25;;;;;;;5.97;4.70;;;5.00;66.60;;;;;;5050378;28;20557;-82
2021/04/08 08:27:56;;;;;;;7.30;4.60;;;4.90;65.90;;;;;;5049056;28;20278;-81
2021/04/08 08:30:30;;;;;;;5.25;4.80;;;5.00;66.20;;;;;;5051970;28;20661;-81
2021/04/08 08:33:10;;;;;;;8.07;5.25;;;5.20;66.40;;;;;;5042117;28;20200;-81
2021/04/08 08:35:37;;;;;;;9.32;4.60;;;5.10;65.20;;;;;;5049773;28;21207;-81
2021/04/08 08:38:13;;;;;;;5.53;5.03;;;5.00;66.70;;;;;;5047880;28;20234;-81
2021/04/08 08:40:41;;;;;;;5.70;5.00;;;5.20;65.90;;;;;;5041105;28;20698;-81
2021/04/08 08:43:12;;;;;;;6.03;4.82;;;5.20;64.60;;;;;;5044689;28;20739;-81
2021/04/08 08:45:40;;;;;;;7.43;5.45;;;5.40;64.80;;;;;;5049482;28;20232;-82
2021/04/08 08:48:11;;;;;;;5.57;4.90;;;5.40;64.00;;;;;;5045428;28;20682;-82
2021/04/08 08:50:39;;;;;;;7.53;5.97;;;5.30;59.80;;;;;;5045668;28;20685;-81
2021/04/08 08:53:09;;;;;;;5.32;4.22;;;5.10;60.00;;;;;;5048451;28;20553;-81
2021/04/08 08:55:36;;;;;;;4.78;4.38;;;5.30;59.60;;;;;;5044759;28;20530;-82
2021/04/08 08:58:03;;;;;;;5.57;5.00;;;5.00;57.90;;;;;;5048526;28;20661;-81
2021/04/08 09:00:31;;;;;;;6.93;5.03;;;4.80;59.00;;;;;;5045624;28;20246;-82
2021/04/08 09:02:59;;;;;;;5.68;5.18;;;5.00;58.10;;;;;;5045370;28;20201;-82
2021/04/08 09:05:28;;;;;;;5.75;5.15;;;5.20;59.20;;;;;;5049323;28;20243;-82
2021/04/08 09:07:59;;;;;;;7.93;5.22;;;5.40;57.90;;;;;;5046288;28;20204;-83
2021/04/08 09:10:30;;;;;;;3.97;3.58;;;5.50;57.70;;;;;;5050352;28;20247;-82
2021/04/08 09:12:57;;;;;;;4.40;4.00;;;5.70;57.50;;;;;;5048962;28;20567;-82
2021/04/08 09:15:25;;;;;;;6.72;4.45;;;5.70;57.40;;;;;;5046565;28;20604;-83
2021/04/08 09:17:58;;;;;;;5.53;4.32;;;6.10;59.10;;;;;;5047183;28;20241;-82
2021/04/08 09:20:26;;;;;;;4.20;3.80;;;6.50;58.60;;;;;;5048519;28;20204;-83
2021/04/08 09:22:56;;;;;;;6.20;4.10;;;6.50;55.40;;;;;;5044733;28;20226;-82
2021/04/08 09:25:29;;;;;;;6.55;4.72;;;6.60;56.10;;;;;;5050554;28;20232;-82
2021/04/08 09:27:57;;;;;;;3.88;3.28;;;6.80;57.40;;;;;;5047350;28;20203;-82
2021/04/08 09:30:49;;;;;;;4.43;3.25;;;7.00;54.70;;;;;;5048754;28;20195;-83
2021/04/08 09:33:17;;;;;;;4.40;4.00;;;6.30;54.50;;;;;;5043649;28;20681;-83
2021/04/08 09:35:47;;;;;;;3.83;3.47;;;6.00;54.10;;;;;;5048864;28;20537;-83
2021/04/08 09:38:38;;;;;;;4.50;4.10;;;6.10;54.80;;;;;;5049522;28;20545;-84
2021/04/08 09:41:06;;;;;;;4.30;3.90;;;6.00;54.60;;;;;;5038359;28;20201;-82
2021/04/08 09:43:36;;;;;;;3.90;3.58;;;5.90;55.00;;;;;;5048498;28;20661;-83
2021/04/08 09:46:06;;;;;;;5.88;4.05;;;5.70;55.70;;;;;;5048943;28;20302;-82
2021/04/08 09:48:46;;;;;;;3.30;3.00;;;5.60;55.90;;;;;;5063428;28;20203;-82
2021/04/08 09:51:29;;;;;;;8.10;4.65;;;5.50;57.60;;;;;;5042153;28;20610;-82
2021/04/08 09:53:59;;;;;;;4.65;4.05;;;5.50;56.10;;;;;;5046778;28;20271;-83
2021/04/08 09:56:57;;;;;;;4.55;3.92;;;5.60;56.70;;;;;;5029776;28;20279;-82
2021/04/08 09:59:25;;;;;;;6.53;3.97;;;6.00;56.70;;;;;;5043635;28;20253;-82
2021/04/08 10:01:52;;;;;;;4.55;4.10;;;6.10;54.90;;;;;;5051655;28;20339;-82
2021/04/08 10:04:22;;;;;;;4.00;3.60;;;6.10;54.50;;;;;;5044406;28;20230;-82
2021/04/08 10:07:03;;;;;;;4.55;4.13;;;6.00;55.10;;;;;;5053670;28;20196;-82
2021/04/08 10:09:30;;;;;;;4.97;4.00;;;5.90;55.80;;;;;;5049774;28;20203;-83
2021/04/08 10:11:56;;;;;;;7.22;3.88;;;5.70;56.00;;;;;;5049866;28;20580;-82
2021/04/08 10:14:25;;;;;;;9.88;4.32;;;5.70;56.30;;;;;;5053228;28;20245;-82
2021/04/08 10:17:03;;;;;;;3.80;3.40;;;5.60;55.30;;;;;;5061047;28;20204;-83
2021/04/08 10:19:32;;;;;;;6.90;3.75;;;5.80;54.90;;;;;;5052765;28;20187;-82
2021/04/08 10:21:58;;;;;;;4.25;3.85;;;6.20;56.90;;;;;;5068017;28;20579;-82
2021/04/08 10:24:25;;;;;;;6.05;3.83;;;6.60;55.90;;;;;;5062739;28;20592;-82
2021/04/08 10:26:52;;;;;;;6.35;3.47;;;6.70;55.20;;;;;;5046036;28;20201;-83
2021/04/08 10:29:31;;;;;;;5.55;4.68;;;6.70;55.10;;;;;;5046351;28;20290;-83
2021/04/08 10:31:59;;;;;;;5.03;3.90;;;6.60;53.90;;;;;;5049939;28;20290;-83
2021/04/08 10:34:34;;;;;;;3.90;3.60;;;6.50;53.50;;;;;;5049615;28;20214;-82
2021/04/08 10:37:02;;;;;;;4.28;3.28;;;6.60;54.70;;;;;;5055724;28;20233;-83
2021/04/08 10:39:32;;;;;;;4.93;3.85;;;6.60;54.30;;;;;;5050344;28;20612;-82
2021/04/08 10:42:01;;;;;;;4.70;4.30;;;6.60;54.20;;;;;;5051016;28;20856;-83
2021/04/08 10:44:29;;;;;;;5.80;4.55;;;6.70;53.40;;;;;;5046472;28;20240;-82
2021/04/08 10:46:57;;;;;;;4.95;4.43;;;6.60;54.10;;;;;;5050898;28;20200;-82
2021/04/08 10:49:26;;;;;;;6.03;5.43;;;6.40;53.40;;;;;;5048685;28;20227;-83
2021/04/08 10:51:55;;;;;;;6.63;4.18;;;6.50;54.50;;;;;;5053273;28;20258;-82
2021/04/08 10:54:27;;;;;;;5.90;5.30;;;7.00;53.90;;;;;;5045380;28;20200;-82
2021/04/08 10:56:54;;;;;;;6.07;3.40;;;7.50;53.20;;;;;;5049532;28;20246;-83
2021/04/08 10:59:22;;;;;;;5.43;4.93;;;7.70;50.80;;;;;;5052383;28;20287;-82
2021/04/08 11:01:50;;;;;;;4.57;3.65;;;7.90;52.60;;;;;;5048533;28;20204;-83
2021/04/08 11:04:17;;;;;;;4.07;3.67;;;8.00;51.90;;;;;;5046920;28;20231;-83
2021/04/08 11:06:44;;;;;;;4.35;3.63;;;8.10;50.90;;;;;;5044840;28;20200;-82
2021/04/08 11:09:11;;;;;;;5.72;4.50;;;8.00;49.70;;;;;;5044682;28;20204;-82
2021/04/08 11:11:38;;;;;;;4.35;3.90;;;8.00;51.60;;;;;;5046045;28;20206;-83
2021/04/08 11:14:05;;;;;;;4.50;3.75;;;8.40;50.30;;;;;;5049359;28;20242;-83
2021/04/08 11:16:32;;;;;;;5.30;4.72;;;8.20;48.90;;;;;;5047775;28;20197;-83
2021/04/08 11:19:02;;;;;;;5.60;3.70;;;7.90;50.10;;;;;;5044429;28;20270;-82
2021/04/08 11:21:36;;;;;;;5.97;3.63;;;7.90;49.80;;;;;;5030464;28;20208;-82
2021/04/08 11:24:03;;;;;;;4.55;3.75;;;7.70;49.60;;;;;;5040630;28;20192;-84
2021/04/08 11:26:31;;;;;;;5.97;4.47;;;7.60;49.80;;;;;;5047424;28;20552;-83
2021/04/08 11:28:58;;;;;;;3.72;3.33;;;7.80;50.10;;;;;;5052090;28;20544;-83
2021/04/08 11:31:28;;;;;;;5.10;3.75;;;7.80;49.30;;;;;;5049467;28;20192;-83
2021/04/08 11:33:57;;;;;;;5.47;4.10;;;7.60;49.80;;;;;;5047755;28;20676;-83
2021/04/08 11:36:26;;;;;;;4.35;3.85;;;7.60;49.70;;;;;;5051886;28;20224;-82
2021/04/08 11:38:53;;;;;;;3.90;3.45;;;7.80;50.00;;;;;;5045870;28;20285;-83
2021/04/08 11:41:21;;;;;;;4.80;3.72;;;7.60;49.30;;;;;;5050955;28;20208;-83
2021/04/08 11:43:51;;;;;;;7.32;4.85;;;7.50;49.00;;;;;;5047284;28;20708;-83
2021/04/08 11:46:27;;;;;;;6.85;4.53;;;7.30;50.30;;;;;;5050714;28;20414;-83
2021/04/08 11:49:32;;;;;;;3.65;3.35;;;7.70;49.70;;;;;;5053598;28;20205;-83
2021/04/08 11:52:09;;;;;;;3.85;3.55;;;7.70;48.90;;;;;;5048056;28;20200;-83
2021/04/08 11:54:35;;;;;;;5.10;3.72;;;7.90;49.30;;;;;;5047763;28;20249;-84
2021/04/08 11:57:05;;;;;;;6.53;3.42;;;8.10;49.20;;;;;;5053262;28;20291;-82
2021/04/08 11:59:34;;;;;;;3.90;3.60;;;8.00;47.90;;;;;;5052752;28;20217;-83
2021/04/08 12:02:01;;;;;;;6.07;4.00;;;7.80;48.60;;;;;;5048130;28;20222;-81
2021/04/08 12:04:29;;;;;;;4.97;3.67;;;7.90;50.30;;;;;;5043774;28;20226;-83
2021/04/08 12:06:58;;;;;;;3.92;2.88;;;7.60;48.40;;;;;;5046867;28;20207;-81
2021/04/08 12:09:34;;;;;;;3.95;3.20;;;7.80;49.60;;;;;;5048974;28;20989;-82
2021/04/08 12:12:02;;;;;;;6.90;4.00;;;7.60;49.00;;;;;;5052556;28;20287;-82
2021/04/08 12:14:29;;;;;;;2.90;2.70;;;7.70;50.10;;;;;;5045223;28;20661;-82
2021/04/08 12:17:05;;;;;;;3.10;2.90;;;7.60;50.00;;;;;;5047257;28;20196;-82
2021/04/08 12:19:32;;;;;;;5.75;3.17;;;8.10;50.30;;;;;;5044581;28;20206;-83
2021/04/08 12:22:03;;;;;;;5.50;4.55;;;8.30;48.80;;;;;;5049806;28;20204;-82
2021/04/08 12:24:31;;;;;;;4.95;3.45;;;8.50;48.70;;;;;;5048267;28;20753;-82
2021/04/08 12:26:58;;;;;;;4.63;2.72;;;8.00;47.40;;;;;;5048686;28;20266;-82
2021/04/08 12:29:25;;;;;;;5.80;3.47;;;8.10;49.00;;;;;;5052123;28;20498;-82
2021/04/08 12:31:54;;;;;;;4.07;3.40;;;7.80;47.60;;;;;;5064667;28;20188;-82
2021/04/08 12:34:22;;;;;;;4.18;3.60;;;7.80;49.30;;;;;;5049218;28;20197;-82
2021/04/08 12:36:49;;;;;;;3.10;2.80;;;7.70;48.80;;;;;;5049212;28;20207;-82
2021/04/08 12:39:16;;;;;;;3.90;3.50;;;8.00;49.90;;;;;;5052966;28;20201;-82
2021/04/08 12:41:43;;;;;;;3.35;3.03;;;8.20;48.90;;;;;;5054501;28;20279;-82
2021/04/08 12:44:09;;;;;;;3.40;3.10;;;8.00;48.30;;;;;;5051012;28;21163;-82
2021/04/08 12:46:36;;;;;;;5.45;3.30;;;8.50;48.40;;;;;;5046760;28;20757;-84
2021/04/08 12:49:05;;;;;;;4.65;3.42;;;8.30;47.10;;;;;;5049851;28;20215;-83
2021/04/08 12:51:33;;;;;;;3.50;3.20;;;8.80;47.70;;;;;;5050573;28;20284;-84
2021/04/08 12:53:59;;;;;;;4.28;3.63;;;9.60;47.60;;;;;;5048532;28;20261;-84
2021/04/08 12:56:27;;;;;;;5.43;3.25;;;9.60;46.40;;;;;;5048934;28;20192;-84
2021/04/08 12:58:55;;;;;;;3.45;2.80;;;9.90;46.90;;;;;;5048481;28;20666;-84
2021/04/08 13:01:23;;;;;;;3.40;3.10;;;10.20;46.10;;;;;;5047180;28;20270;-84
2021/04/08 13:03:52;;;;;;;3.37;3.07;;;10.00;43.50;;;;;;5047846;28;20629;-83
2021/04/08 13:06:19;;;;;;;3.53;3.23;;;10.00;43.50;;;;;;5049605;28;20654;-83
2021/04/08 13:08:48;;;;;;;3.60;3.30;;;10.10;43.90;;;;;;5041907;28;20672;-84
2021/04/08 13:11:15;;;;;;;3.93;3.20;;;10.60;43.00;;;;;;5047882;28;20619;-85